sensor_id;sensor_type;location;lat;lon;timestamp;P1;durP1;ratioP1;P2;durP2;ratioP2
82558;SDS011;72227;42.004;21.364;2023-10-13T00:00:32;32.25;;;19.70;;
82558;SDS011;72227;42.004;21.364;2023-10-13T00:03:05;33.10;;;21.27;;
82558;SDS011;72227;42.004;21.364;2023-10-13T00:05:31;32.75;;;19.00;;
82558;SDS011;72227;42.004;21.364;2023-10-13T00:08:01;30.52;;;19.08;;
82558;SDS011;72227;42.004;21.364;2023-10-13T00:10:31;34.28;;;19.65;;
82558;SDS011;72227;42.004;21.364;2023-10-13T00:13:00;31.45;;;20.95;;
82558;SDS011;72227;42.004;21.364;2023-10-13T00:15:44;33.50;;;19.25;;
82558;SDS011;72227;42.004;21.364;2023-10-13T00:18:24;29.65;;;19.10;;
82558;SDS011;72227;42.004;21.364;2023-10-13T00:20:52;29.40;;;18.92;;
82558;SDS011;72227;42.004;21.364;2023-10-13T00:23:21;25.67;;;17.70;;
82558;SDS011;72227;42.004;21.364;2023-10-13T00:25:48;31.27;;;20.88;;
82558;SDS011;72227;42.004;21.364;2023-10-13T00:28:27;29.17;;;18.05;;
82558;SDS011;72227;42.004;21.364;2023-10-13T00:31:11;30.10;;;17.42;;
82558;SDS011;72227;42.004;21.364;2023-10-13T00:33:39;31.35;;;17.85;;
82558;SDS011;72227;42.004;21.364;2023-10-13T00:36:10;30.00;;;20.67;;
82558;SDS011;72227;42.004;21.364;2023-10-13T00:38:42;27.35;;;16.90;;
82558;SDS011;72227;42.004;21.364;2023-10-13T00:41:13;29.08;;;18.60;;
82558;SDS011;72227;42.004;21.364;2023-10-13T00:43:44;29.95;;;20.48;;
82558;SDS011;72227;42.004;21.364;2023-10-13T00:46:10;30.52;;;18.30;;
82558;SDS011;72227;42.004;21.364;2023-10-13T00:48:39;28.95;;;18.27;;
82558;SDS011;72227;42.004;21.364;2023-10-13T00:51:14;34.25;;;17.38;;
82558;SDS011;72227;42.004;21.364;2023-10-13T00:53:47;27.52;;;18.20;;
82558;SDS011;72227;42.004;21.364;2023-10-13T00:56:14;27.02;;;16.38;;
82558;SDS011;72227;42.004;21.364;2023-10-13T00:58:53;29.40;;;17.85;;
82558;SDS011;72227;42.004;21.364;2023-10-13T01:01:22;27.05;;;16.55;;
82558;SDS011;72227;42.004;21.364;2023-10-13T01:03:57;26.50;;;16.60;;
82558;SDS011;72227;42.004;21.364;2023-10-13T01:06:24;28.25;;;17.52;;
82558;SDS011;72227;42.004;21.364;2023-10-13T01:08:56;32.63;;;17.42;;
82558;SDS011;72227;42.004;21.364;2023-10-13T01:11:23;33.63;;;19.15;;
82558;SDS011;72227;42.004;21.364;2023-10-13T01:13:49;35.85;;;17.95;;
82558;SDS011;72227;42.004;21.364;2023-10-13T01:16:19;36.10;;;19.90;;
82558;SDS011;72227;42.004;21.364;2023-10-13T01:18:52;37.28;;;20.30;;
82558;SDS011;72227;42.004;21.364;2023-10-13T01:21:18;35.97;;;19.45;;
82558;SDS011;72227;42.004;21.364;2023-10-13T01:23:52;29.42;;;21.27;;
82558;SDS011;72227;42.004;21.364;2023-10-13T01:26:19;34.40;;;19.63;;
82558;SDS011;72227;42.004;21.364;2023-10-13T01:28:51;33.60;;;21.38;;
82558;SDS011;72227;42.004;21.364;2023-10-13T01:31:19;36.45;;;20.10;;
82558;SDS011;72227;42.004;21.364;2023-10-13T01:33:56;30.30;;;17.67;;
82558;SDS011;72227;42.004;21.364;2023-10-13T01:36:28;32.40;;;17.98;;
82558;SDS011;72227;42.004;21.364;2023-10-13T01:39:00;32.67;;;19.98;;
82558;SDS011;72227;42.004;21.364;2023-10-13T01:41:26;33.65;;;20.38;;
82558;SDS011;72227;42.004;21.364;2023-10-13T01:43:56;33.42;;;21.52;;
82558;SDS011;72227;42.004;21.364;2023-10-13T01:46:22;33.90;;;18.33;;
82558;SDS011;72227;42.004;21.364;2023-10-13T01:48:48;34.42;;;18.85;;
82558;SDS011;72227;42.004;21.364;2023-10-13T01:51:14;33.75;;;18.77;;
82558;SDS011;72227;42.004;21.364;2023-10-13T01:53:40;35.35;;;19.10;;
82558;SDS011;72227;42.004;21.364;2023-10-13T01:56:07;35.38;;;20.00;;
82558;SDS011;72227;42.004;21.364;2023-10-13T01:58:38;33.88;;;19.50;;
82558;SDS011;72227;42.004;21.364;2023-10-13T02:01:07;31.92;;;20.35;;
82558;SDS011;72227;42.004;21.364;2023-10-13T02:03:34;32.08;;;18.48;;
82558;SDS011;72227;42.004;21.364;2023-10-13T02:06:21;32.53;;;18.98;;
82558;SDS011;72227;42.004;21.364;2023-10-13T02:08:49;33.17;;;18.92;;
82558;SDS011;72227;42.004;21.364;2023-10-13T02:11:22;28.98;;;17.42;;
82558;SDS011;72227;42.004;21.364;2023-10-13T02:13:48;35.80;;;18.13;;
82558;SDS011;72227;42.004;21.364;2023-10-13T02:16:18;31.88;;;18.85;;
82558;SDS011;72227;42.004;21.364;2023-10-13T02:18:46;34.42;;;20.02;;
82558;SDS011;72227;42.004;21.364;2023-10-13T02:21:17;34.95;;;20.77;;
82558;SDS011;72227;42.004;21.364;2023-10-13T02:23:43;29.05;;;17.60;;
82558;SDS011;72227;42.004;21.364;2023-10-13T02:26:13;36.22;;;21.48;;
82558;SDS011;72227;42.004;21.364;2023-10-13T02:28:55;29.80;;;19.30;;
82558;SDS011;72227;42.004;21.364;2023-10-13T02:31:22;28.25;;;19.33;;
82558;SDS011;72227;42.004;21.364;2023-10-13T02:33:51;36.22;;;19.00;;
82558;SDS011;72227;42.004;21.364;2023-10-13T02:36:18;31.13;;;17.67;;
82558;SDS011;72227;42.004;21.364;2023-10-13T02:39:01;31.63;;;18.70;;
82558;SDS011;72227;42.004;21.364;2023-10-13T02:41:32;32.90;;;18.63;;
82558;SDS011;72227;42.004;21.364;2023-10-13T02:44:02;33.88;;;18.80;;
82558;SDS011;72227;42.004;21.364;2023-10-13T02:46:32;31.85;;;20.13;;
82558;SDS011;72227;42.004;21.364;2023-10-13T02:49:01;30.95;;;18.65;;
82558;SDS011;72227;42.004;21.364;2023-10-13T02:51:34;35.75;;;19.75;;
82558;SDS011;72227;42.004;21.364;2023-10-13T02:54:00;37.42;;;20.30;;
82558;SDS011;72227;42.004;21.364;2023-10-13T02:56:40;32.42;;;17.90;;
82558;SDS011;72227;42.004;21.364;2023-10-13T02:59:14;32.03;;;18.98;;
82558;SDS011;72227;42.004;21.364;2023-10-13T03:01:44;35.53;;;19.15;;
82558;SDS011;72227;42.004;21.364;2023-10-13T03:04:10;30.63;;;19.33;;
82558;SDS011;72227;42.004;21.364;2023-10-13T03:06:38;31.20;;;18.73;;
82558;SDS011;72227;42.004;21.364;2023-10-13T03:09:08;30.58;;;18.17;;
82558;SDS011;72227;42.004;21.364;2023-10-13T03:11:43;34.95;;;19.52;;
82558;SDS011;72227;42.004;21.364;2023-10-13T03:14:22;34.45;;;21.23;;
82558;SDS011;72227;42.004;21.364;2023-10-13T03:19:33;29.25;;;18.02;;
82558;SDS011;72227;42.004;21.364;2023-10-13T03:22:05;30.38;;;16.73;;
82558;SDS011;72227;42.004;21.364;2023-10-13T03:24:37;29.17;;;16.77;;
82558;SDS011;72227;42.004;21.364;2023-10-13T03:27:12;29.30;;;18.20;;
82558;SDS011;72227;42.004;21.364;2023-10-13T03:29:43;26.98;;;17.73;;
82558;SDS011;72227;42.004;21.364;2023-10-13T03:32:13;29.83;;;17.67;;
82558;SDS011;72227;42.004;21.364;2023-10-13T03:34:40;26.10;;;16.02;;
82558;SDS011;72227;42.004;21.364;2023-10-13T03:37:18;27.13;;;16.17;;
82558;SDS011;72227;42.004;21.364;2023-10-13T03:40:02;23.85;;;16.70;;
82558;SDS011;72227;42.004;21.364;2023-10-13T03:42:31;27.58;;;17.08;;
82558;SDS011;72227;42.004;21.364;2023-10-13T03:44:58;29.75;;;17.05;;
82558;SDS011;72227;42.004;21.364;2023-10-13T03:47:24;27.98;;;17.10;;
82558;SDS011;72227;42.004;21.364;2023-10-13T03:49:57;29.63;;;17.42;;
82558;SDS011;72227;42.004;21.364;2023-10-13T03:52:47;27.25;;;17.70;;
82558;SDS011;72227;42.004;21.364;2023-10-13T03:55:13;27.25;;;17.52;;
82558;SDS011;72227;42.004;21.364;2023-10-13T03:57:42;33.35;;;17.48;;
82558;SDS011;72227;42.004;21.364;2023-10-13T04:00:11;29.95;;;17.27;;
82558;SDS011;72227;42.004;21.364;2023-10-13T04:02:46;31.17;;;16.67;;
82558;SDS011;72227;42.004;21.364;2023-10-13T04:05:29;31.95;;;17.83;;
82558;SDS011;72227;42.004;21.364;2023-10-13T04:08:15;27.92;;;18.17;;
82558;SDS011;72227;42.004;21.364;2023-10-13T04:10:54;28.13;;;20.58;;
82558;SDS011;72227;42.004;21.364;2023-10-13T04:13:20;31.38;;;18.73;;
82558;SDS011;72227;42.004;21.364;2023-10-13T04:16:06;28.08;;;17.70;;
82558;SDS011;72227;42.004;21.364;2023-10-13T04:18:51;33.83;;;18.20;;
82558;SDS011;72227;42.004;21.364;2023-10-13T04:21:22;32.47;;;16.90;;
82558;SDS011;72227;42.004;21.364;2023-10-13T04:24:04;31.98;;;18.95;;
82558;SDS011;72227;42.004;21.364;2023-10-13T04:26:44;32.75;;;20.30;;
82558;SDS011;72227;42.004;21.364;2023-10-13T04:29:29;31.50;;;19.02;;
82558;SDS011;72227;42.004;21.364;2023-10-13T04:32:14;32.28;;;19.08;;
82558;SDS011;72227;42.004;21.364;2023-10-13T04:34:41;35.95;;;19.92;;
82558;SDS011;72227;42.004;21.364;2023-10-13T04:37:16;26.88;;;18.67;;
82558;SDS011;72227;42.004;21.364;2023-10-13T04:39:55;32.50;;;18.75;;
82558;SDS011;72227;42.004;21.364;2023-10-13T04:42:37;27.90;;;17.60;;
82558;SDS011;72227;42.004;21.364;2023-10-13T04:45:18;33.60;;;19.00;;
82558;SDS011;72227;42.004;21.364;2023-10-13T04:47:57;32.00;;;19.42;;
82558;SDS011;72227;42.004;21.364;2023-10-13T04:50:39;30.88;;;18.65;;
82558;SDS011;72227;42.004;21.364;2023-10-13T04:53:15;32.15;;;18.58;;
82558;SDS011;72227;42.004;21.364;2023-10-13T04:55:58;29.35;;;18.77;;
82558;SDS011;72227;42.004;21.364;2023-10-13T04:58:27;32.05;;;17.17;;
82558;SDS011;72227;42.004;21.364;2023-10-13T05:00:58;32.00;;;17.58;;
82558;SDS011;72227;42.004;21.364;2023-10-13T05:03:51;26.00;;;16.33;;
82558;SDS011;72227;42.004;21.364;2023-10-13T05:06:35;28.33;;;17.00;;
82558;SDS011;72227;42.004;21.364;2023-10-13T05:09:11;28.35;;;17.27;;
82558;SDS011;72227;42.004;21.364;2023-10-13T05:11:56;28.80;;;16.40;;
82558;SDS011;72227;42.004;21.364;2023-10-13T05:14:41;29.73;;;18.70;;
82558;SDS011;72227;42.004;21.364;2023-10-13T05:17:26;31.52;;;18.85;;
82558;SDS011;72227;42.004;21.364;2023-10-13T05:20:11;29.48;;;18.42;;
82558;SDS011;72227;42.004;21.364;2023-10-13T05:22:55;30.50;;;21.05;;
82558;SDS011;72227;42.004;21.364;2023-10-13T05:25:40;32.67;;;20.35;;
82558;SDS011;72227;42.004;21.364;2023-10-13T05:28:25;31.58;;;18.40;;
82558;SDS011;72227;42.004;21.364;2023-10-13T05:31:09;28.50;;;17.70;;
82558;SDS011;72227;42.004;21.364;2023-10-13T05:33:54;30.35;;;18.25;;
82558;SDS011;72227;42.004;21.364;2023-10-13T05:36:38;31.13;;;18.95;;
82558;SDS011;72227;42.004;21.364;2023-10-13T05:39:23;36.95;;;19.48;;
82558;SDS011;72227;42.004;21.364;2023-10-13T05:42:08;30.63;;;18.58;;
82558;SDS011;72227;42.004;21.364;2023-10-13T05:44:52;33.10;;;19.42;;
82558;SDS011;72227;42.004;21.364;2023-10-13T05:47:41;32.08;;;19.02;;
82558;SDS011;72227;42.004;21.364;2023-10-13T05:50:08;34.55;;;18.00;;
82558;SDS011;72227;42.004;21.364;2023-10-13T05:52:39;28.98;;;17.98;;
82558;SDS011;72227;42.004;21.364;2023-10-13T05:55:37;36.95;;;19.58;;
82558;SDS011;72227;42.004;21.364;2023-10-13T05:58:22;33.22;;;19.85;;
82558;SDS011;72227;42.004;21.364;2023-10-13T06:01:11;30.88;;;18.42;;
82558;SDS011;72227;42.004;21.364;2023-10-13T06:03:56;26.58;;;18.10;;
82558;SDS011;72227;42.004;21.364;2023-10-13T06:06:41;28.77;;;18.38;;
82558;SDS011;72227;42.004;21.364;2023-10-13T06:09:26;32.30;;;21.98;;
82558;SDS011;72227;42.004;21.364;2023-10-13T06:12:10;33.35;;;20.55;;
82558;SDS011;72227;42.004;21.364;2023-10-13T06:14:55;36.10;;;20.63;;
82558;SDS011;72227;42.004;21.364;2023-10-13T06:17:39;29.25;;;19.52;;
82558;SDS011;72227;42.004;21.364;2023-10-13T06:20:24;28.65;;;17.85;;
82558;SDS011;72227;42.004;21.364;2023-10-13T06:23:22;29.45;;;16.40;;
82558;SDS011;72227;42.004;21.364;2023-10-13T06:26:07;30.40;;;18.67;;
82558;SDS011;72227;42.004;21.364;2023-10-13T06:28:52;27.95;;;17.30;;
82558;SDS011;72227;42.004;21.364;2023-10-13T06:31:18;26.48;;;17.92;;
82558;SDS011;72227;42.004;21.364;2023-10-13T06:33:47;27.05;;;17.73;;
82558;SDS011;72227;42.004;21.364;2023-10-13T06:36:13;28.02;;;19.02;;
82558;SDS011;72227;42.004;21.364;2023-10-13T06:38:39;30.50;;;18.05;;
82558;SDS011;72227;42.004;21.364;2023-10-13T06:41:07;31.50;;;19.98;;
82558;SDS011;72227;42.004;21.364;2023-10-13T06:43:33;30.42;;;19.70;;
82558;SDS011;72227;42.004;21.364;2023-10-13T06:46:08;31.65;;;19.50;;
82558;SDS011;72227;42.004;21.364;2023-10-13T06:48:40;43.72;;;21.27;;
82558;SDS011;72227;42.004;21.364;2023-10-13T06:51:06;32.90;;;19.42;;
82558;SDS011;72227;42.004;21.364;2023-10-13T06:53:48;30.45;;;21.13;;
82558;SDS011;72227;42.004;21.364;2023-10-13T06:56:17;37.03;;;22.67;;
82558;SDS011;72227;42.004;21.364;2023-10-13T06:58:47;29.95;;;20.30;;
82558;SDS011;72227;42.004;21.364;2023-10-13T07:01:13;31.15;;;19.83;;
82558;SDS011;72227;42.004;21.364;2023-10-13T07:03:46;29.67;;;19.05;;
82558;SDS011;72227;42.004;21.364;2023-10-13T07:06:18;31.13;;;19.80;;
82558;SDS011;72227;42.004;21.364;2023-10-13T07:08:45;31.02;;;18.95;;
82558;SDS011;72227;42.004;21.364;2023-10-13T07:11:17;27.52;;;17.98;;
82558;SDS011;72227;42.004;21.364;2023-10-13T07:13:58;28.25;;;17.33;;
82558;SDS011;72227;42.004;21.364;2023-10-13T07:16:24;26.70;;;18.23;;
82558;SDS011;72227;42.004;21.364;2023-10-13T07:19:00;27.27;;;17.15;;
82558;SDS011;72227;42.004;21.364;2023-10-13T07:21:31;29.70;;;17.70;;
82558;SDS011;72227;42.004;21.364;2023-10-13T07:23:57;32.03;;;20.45;;
82558;SDS011;72227;42.004;21.364;2023-10-13T07:26:33;30.15;;;19.98;;
82558;SDS011;72227;42.004;21.364;2023-10-13T07:28:59;26.95;;;18.40;;
82558;SDS011;72227;42.004;21.364;2023-10-13T07:31:25;28.02;;;15.68;;
82558;SDS011;72227;42.004;21.364;2023-10-13T07:33:52;24.23;;;13.98;;
82558;SDS011;72227;42.004;21.364;2023-10-13T07:36:29;25.58;;;15.32;;
82558;SDS011;72227;42.004;21.364;2023-10-13T07:39:04;22.45;;;16.90;;
82558;SDS011;72227;42.004;21.364;2023-10-13T07:41:50;24.73;;;14.70;;
82558;SDS011;72227;42.004;21.364;2023-10-13T07:47:13;23.67;;;13.43;;
82558;SDS011;72227;42.004;21.364;2023-10-13T07:49:40;22.42;;;15.52;;
82558;SDS011;72227;42.004;21.364;2023-10-13T07:52:07;21.30;;;15.30;;
82558;SDS011;72227;42.004;21.364;2023-10-13T07:54:49;25.05;;;17.05;;
82558;SDS011;72227;42.004;21.364;2023-10-13T07:57:24;32.50;;;16.92;;
82558;SDS011;72227;42.004;21.364;2023-10-13T07:59:56;22.08;;;16.35;;
82558;SDS011;72227;42.004;21.364;2023-10-13T08:02:36;25.40;;;16.88;;
82558;SDS011;72227;42.004;21.364;2023-10-13T08:05:24;26.92;;;18.17;;
82558;SDS011;72227;42.004;21.364;2023-10-13T08:08:04;22.52;;;15.90;;
82558;SDS011;72227;42.004;21.364;2023-10-13T08:10:39;27.63;;;18.30;;
82558;SDS011;72227;42.004;21.364;2023-10-13T08:13:07;26.77;;;17.08;;
82558;SDS011;72227;42.004;21.364;2023-10-13T08:15:51;25.50;;;18.25;;
82558;SDS011;72227;42.004;21.364;2023-10-13T08:18:18;25.40;;;17.05;;
82558;SDS011;72227;42.004;21.364;2023-10-13T08:20:58;23.45;;;16.42;;
82558;SDS011;72227;42.004;21.364;2023-10-13T08:23:41;21.13;;;15.68;;
82558;SDS011;72227;42.004;21.364;2023-10-13T08:26:19;27.45;;;16.42;;
82558;SDS011;72227;42.004;21.364;2023-10-13T08:29:01;24.63;;;17.27;;
82558;SDS011;72227;42.004;21.364;2023-10-13T08:31:46;21.08;;;14.80;;
82558;SDS011;72227;42.004;21.364;2023-10-13T08:34:31;21.83;;;13.55;;
82558;SDS011;72227;42.004;21.364;2023-10-13T08:37:23;25.83;;;17.23;;
82558;SDS011;72227;42.004;21.364;2023-10-13T08:39:50;29.55;;;17.13;;
82558;SDS011;72227;42.004;21.364;2023-10-13T08:45:07;20.08;;;14.60;;
82558;SDS011;72227;42.004;21.364;2023-10-13T08:48:06;22.35;;;15.25;;
82558;SDS011;72227;42.004;21.364;2023-10-13T08:50:37;24.02;;;14.93;;
82558;SDS011;72227;42.004;21.364;2023-10-13T08:53:31;22.45;;;15.95;;
82558;SDS011;72227;42.004;21.364;2023-10-13T08:56:12;21.35;;;14.18;;
82558;SDS011;72227;42.004;21.364;2023-10-13T08:58:39;21.98;;;14.82;;
82558;SDS011;72227;42.004;21.364;2023-10-13T09:04:17;19.88;;;16.02;;
82558;SDS011;72227;42.004;21.364;2023-10-13T09:07:02;18.80;;;14.40;;
82558;SDS011;72227;42.004;21.364;2023-10-13T09:09:32;26.40;;;15.50;;
82558;SDS011;72227;42.004;21.364;2023-10-13T09:12:14;20.98;;;15.32;;
82558;SDS011;72227;42.004;21.364;2023-10-13T09:14:42;23.30;;;14.90;;
82558;SDS011;72227;42.004;21.364;2023-10-13T09:17:22;24.73;;;17.48;;
82558;SDS011;72227;42.004;21.364;2023-10-13T09:20:05;21.58;;;14.50;;
82558;SDS011;72227;42.004;21.364;2023-10-13T09:22:47;21.35;;;14.95;;
82558;SDS011;72227;42.004;21.364;2023-10-13T09:25:29;20.67;;;14.80;;
82558;SDS011;72227;42.004;21.364;2023-10-13T09:28:11;24.48;;;15.48;;
82558;SDS011;72227;42.004;21.364;2023-10-13T09:36:20;24.27;;;14.90;;
82558;SDS011;72227;42.004;21.364;2023-10-13T09:38:46;22.35;;;15.02;;
82558;SDS011;72227;42.004;21.364;2023-10-13T09:41:26;19.20;;;13.05;;
82558;SDS011;72227;42.004;21.364;2023-10-13T09:43:52;21.33;;;15.65;;
82558;SDS011;72227;42.004;21.364;2023-10-13T09:46:22;21.70;;;14.20;;
82558;SDS011;72227;42.004;21.364;2023-10-13T09:48:54;18.73;;;12.27;;
82558;SDS011;72227;42.004;21.364;2023-10-13T09:51:32;16.75;;;11.95;;
82558;SDS011;72227;42.004;21.364;2023-10-13T09:56:55;18.13;;;10.73;;
82558;SDS011;72227;42.004;21.364;2023-10-13T09:59:22;16.27;;;11.68;;
82558;SDS011;72227;42.004;21.364;2023-10-13T10:01:50;19.58;;;14.05;;
82558;SDS011;72227;42.004;21.364;2023-10-13T10:04:22;17.35;;;13.20;;
82558;SDS011;72227;42.004;21.364;2023-10-13T10:09:28;18.10;;;11.77;;
82558;SDS011;72227;42.004;21.364;2023-10-13T10:15:29;19.08;;;14.02;;
82558;SDS011;72227;42.004;21.364;2023-10-13T10:17:38;17.45;;;11.52;;
82558;SDS011;72227;42.004;21.364;2023-10-13T10:20:04;18.73;;;11.77;;
82558;SDS011;72227;42.004;21.364;2023-10-13T10:22:40;18.75;;;11.05;;
82558;SDS011;72227;42.004;21.364;2023-10-13T10:25:13;17.88;;;11.90;;
82558;SDS011;72227;42.004;21.364;2023-10-13T10:27:58;15.38;;;11.25;;
82558;SDS011;72227;42.004;21.364;2023-10-13T10:30:27;14.32;;;10.93;;
82558;SDS011;72227;42.004;21.364;2023-10-13T10:32:57;15.82;;;10.93;;
82558;SDS011;72227;42.004;21.364;2023-10-13T10:35:24;17.40;;;10.88;;
82558;SDS011;72227;42.004;21.364;2023-10-13T10:38:07;17.80;;;12.30;;
82558;SDS011;72227;42.004;21.364;2023-10-13T10:40:52;20.10;;;13.43;;
82558;SDS011;72227;42.004;21.364;2023-10-13T10:43:23;15.23;;;11.23;;
82558;SDS011;72227;42.004;21.364;2023-10-13T10:45:51;18.15;;;11.90;;
82558;SDS011;72227;42.004;21.364;2023-10-13T10:48:17;18.02;;;12.18;;
82558;SDS011;72227;42.004;21.364;2023-10-13T10:50:55;15.73;;;10.48;;
82558;SDS011;72227;42.004;21.364;2023-10-13T10:53:23;20.08;;;10.77;;
82558;SDS011;72227;42.004;21.364;2023-10-13T10:56:08;16.10;;;12.02;;
82558;SDS011;72227;42.004;21.364;2023-10-13T10:58:58;23.40;;;12.13;;
82558;SDS011;72227;42.004;21.364;2023-10-13T11:01:28;17.92;;;10.75;;
82558;SDS011;72227;42.004;21.364;2023-10-13T11:04:04;16.00;;;10.80;;
82558;SDS011;72227;42.004;21.364;2023-10-13T11:06:37;21.63;;;14.07;;
82558;SDS011;72227;42.004;21.364;2023-10-13T11:09:07;24.35;;;13.88;;
82558;SDS011;72227;42.004;21.364;2023-10-13T11:11:52;17.23;;;11.18;;
82558;SDS011;72227;42.004;21.364;2023-10-13T11:16:48;18.45;;;11.68;;
82558;SDS011;72227;42.004;21.364;2023-10-13T11:19:37;17.63;;;10.55;;
82558;SDS011;72227;42.004;21.364;2023-10-13T11:22:10;17.92;;;10.52;;
82558;SDS011;72227;42.004;21.364;2023-10-13T11:24:40;27.48;;;11.55;;
82558;SDS011;72227;42.004;21.364;2023-10-13T11:27:13;18.00;;;10.85;;
82558;SDS011;72227;42.004;21.364;2023-10-13T11:32:17;17.63;;;10.05;;
82558;SDS011;72227;42.004;21.364;2023-10-13T11:34:45;16.95;;;12.25;;
82558;SDS011;72227;42.004;21.364;2023-10-13T11:37:17;14.77;;;10.00;;
82558;SDS011;72227;42.004;21.364;2023-10-13T11:40:03;20.27;;;10.93;;
82558;SDS011;72227;42.004;21.364;2023-10-13T11:42:37;17.85;;;10.00;;
82558;SDS011;72227;42.004;21.364;2023-10-13T11:45:09;17.00;;;10.55;;
82558;SDS011;72227;42.004;21.364;2023-10-13T11:48:10;19.55;;;10.70;;
82558;SDS011;72227;42.004;21.364;2023-10-13T11:50:39;13.05;;;9.63;;
82558;SDS011;72227;42.004;21.364;2023-10-13T11:53:07;16.25;;;10.93;;
82558;SDS011;72227;42.004;21.364;2023-10-13T11:55:33;20.05;;;10.30;;
82558;SDS011;72227;42.004;21.364;2023-10-13T11:57:59;16.50;;;10.10;;
82558;SDS011;72227;42.004;21.364;2023-10-13T12:00:25;15.20;;;9.88;;
82558;SDS011;72227;42.004;21.364;2023-10-13T12:03:12;21.08;;;9.48;;
82558;SDS011;72227;42.004;21.364;2023-10-13T12:05:57;14.35;;;9.20;;
82558;SDS011;72227;42.004;21.364;2023-10-13T12:08:42;16.73;;;9.60;;
82558;SDS011;72227;42.004;21.364;2023-10-13T12:11:14;15.75;;;8.63;;
82558;SDS011;72227;42.004;21.364;2023-10-13T12:13:56;10.88;;;7.32;;
82558;SDS011;72227;42.004;21.364;2023-10-13T12:16:22;12.57;;;7.57;;
82558;SDS011;72227;42.004;21.364;2023-10-13T12:18:59;11.90;;;7.28;;
82558;SDS011;72227;42.004;21.364;2023-10-13T12:21:26;14.07;;;8.68;;
82558;SDS011;72227;42.004;21.364;2023-10-13T12:23:54;20.67;;;8.80;;
82558;SDS011;72227;42.004;21.364;2023-10-13T12:26:20;13.45;;;8.18;;
82558;SDS011;72227;42.004;21.364;2023-10-13T12:28:57;12.05;;;7.40;;
82558;SDS011;72227;42.004;21.364;2023-10-13T12:31:31;13.57;;;7.80;;
82558;SDS011;72227;42.004;21.364;2023-10-13T12:33:57;12.70;;;6.97;;
82558;SDS011;72227;42.004;21.364;2023-10-13T12:36:31;14.32;;;6.97;;
82558;SDS011;72227;42.004;21.364;2023-10-13T12:39:06;13.40;;;8.77;;
82558;SDS011;72227;42.004;21.364;2023-10-13T12:41:32;15.75;;;10.40;;
82558;SDS011;72227;42.004;21.364;2023-10-13T12:44:17;16.02;;;9.30;;
82558;SDS011;72227;42.004;21.364;2023-10-13T12:47:02;12.70;;;6.68;;
82558;SDS011;72227;42.004;21.364;2023-10-13T12:49:47;14.32;;;7.28;;
82558;SDS011;72227;42.004;21.364;2023-10-13T12:52:13;12.30;;;7.47;;
82558;SDS011;72227;42.004;21.364;2023-10-13T12:54:53;11.85;;;7.10;;
82558;SDS011;72227;42.004;21.364;2023-10-13T12:57:22;35.75;;;29.13;;
82558;SDS011;72227;42.004;21.364;2023-10-13T12:59:48;12.85;;;6.13;;
82558;SDS011;72227;42.004;21.364;2023-10-13T13:02:18;10.95;;;5.55;;
82558;SDS011;72227;42.004;21.364;2023-10-13T13:04:45;11.75;;;6.47;;
82558;SDS011;72227;42.004;21.364;2023-10-13T13:07:16;17.50;;;10.48;;
82558;SDS011;72227;42.004;21.364;2023-10-13T13:09:42;9.20;;;4.70;;
82558;SDS011;72227;42.004;21.364;2023-10-13T13:12:09;16.20;;;10.85;;
82558;SDS011;72227;42.004;21.364;2023-10-13T13:14:37;14.68;;;8.32;;
82558;SDS011;72227;42.004;21.364;2023-10-13T13:17:06;16.08;;;5.57;;
82558;SDS011;72227;42.004;21.364;2023-10-13T13:19:32;19.95;;;11.25;;
82558;SDS011;72227;42.004;21.364;2023-10-13T13:22:01;13.57;;;7.82;;
82558;SDS011;72227;42.004;21.364;2023-10-13T13:24:29;12.90;;;7.82;;
82558;SDS011;72227;42.004;21.364;2023-10-13T13:26:55;13.50;;;8.57;;
82558;SDS011;72227;42.004;21.364;2023-10-13T13:29:22;18.30;;;11.68;;
82558;SDS011;72227;42.004;21.364;2023-10-13T13:31:48;16.42;;;7.85;;
82558;SDS011;72227;42.004;21.364;2023-10-13T13:34:14;12.90;;;8.32;;
82558;SDS011;72227;42.004;21.364;2023-10-13T13:36:41;14.02;;;9.35;;
82558;SDS011;72227;42.004;21.364;2023-10-13T13:39:10;12.50;;;6.53;;
82558;SDS011;72227;42.004;21.364;2023-10-13T13:41:43;17.27;;;11.05;;
82558;SDS011;72227;42.004;21.364;2023-10-13T13:44:09;18.17;;;11.45;;
82558;SDS011;72227;42.004;21.364;2023-10-13T13:46:39;15.80;;;9.32;;
82558;SDS011;72227;42.004;21.364;2023-10-13T13:49:08;14.70;;;8.85;;
82558;SDS011;72227;42.004;21.364;2023-10-13T13:51:44;19.45;;;13.10;;
82558;SDS011;72227;42.004;21.364;2023-10-13T13:54:16;27.67;;;17.83;;
82558;SDS011;72227;42.004;21.364;2023-10-13T13:56:42;13.88;;;8.60;;
82558;SDS011;72227;42.004;21.364;2023-10-13T13:59:09;19.50;;;12.93;;
82558;SDS011;72227;42.004;21.364;2023-10-13T14:01:40;15.55;;;11.30;;
82558;SDS011;72227;42.004;21.364;2023-10-13T14:04:09;19.80;;;15.02;;
82558;SDS011;72227;42.004;21.364;2023-10-13T14:06:35;19.15;;;14.70;;
82558;SDS011;72227;42.004;21.364;2023-10-13T14:09:03;27.33;;;17.88;;
82558;SDS011;72227;42.004;21.364;2023-10-13T14:14:56;20.20;;;11.25;;
82558;SDS011;72227;42.004;21.364;2023-10-13T14:17:25;18.35;;;8.85;;
82558;SDS011;72227;42.004;21.364;2023-10-13T14:19:55;20.95;;;11.93;;
82558;SDS011;72227;42.004;21.364;2023-10-13T14:22:27;18.50;;;10.70;;
82558;SDS011;72227;42.004;21.364;2023-10-13T14:24:53;21.60;;;13.75;;
82558;SDS011;72227;42.004;21.364;2023-10-13T14:27:23;17.45;;;12.13;;
82558;SDS011;72227;42.004;21.364;2023-10-13T14:29:51;20.85;;;11.40;;
82558;SDS011;72227;42.004;21.364;2023-10-13T14:32:30;15.93;;;8.95;;
82558;SDS011;72227;42.004;21.364;2023-10-13T14:34:56;17.38;;;8.63;;
82558;SDS011;72227;42.004;21.364;2023-10-13T14:37:23;16.42;;;9.27;;
82558;SDS011;72227;42.004;21.364;2023-10-13T14:39:56;16.02;;;7.93;;
82558;SDS011;72227;42.004;21.364;2023-10-13T14:42:25;17.35;;;10.07;;
82558;SDS011;72227;42.004;21.364;2023-10-13T14:45:01;14.82;;;7.00;;
82558;SDS011;72227;42.004;21.364;2023-10-13T14:50:24;23.80;;;12.32;;
82558;SDS011;72227;42.004;21.364;2023-10-13T14:52:50;12.55;;;7.10;;
82558;SDS011;72227;42.004;21.364;2023-10-13T14:55:19;13.90;;;6.75;;
82558;SDS011;72227;42.004;21.364;2023-10-13T15:00:12;17.67;;;9.50;;
82558;SDS011;72227;42.004;21.364;2023-10-13T15:02:39;14.57;;;8.93;;
82558;SDS011;72227;42.004;21.364;2023-10-13T15:05:09;19.85;;;6.07;;
82558;SDS011;72227;42.004;21.364;2023-10-13T15:07:42;16.13;;;7.32;;
82558;SDS011;72227;42.004;21.364;2023-10-13T15:10:19;40.25;;;7.78;;
82558;SDS011;72227;42.004;21.364;2023-10-13T15:12:45;16.27;;;6.65;;
82558;SDS011;72227;42.004;21.364;2023-10-13T15:15:11;17.42;;;7.25;;
82558;SDS011;72227;42.004;21.364;2023-10-13T15:17:44;17.73;;;6.82;;
82558;SDS011;72227;42.004;21.364;2023-10-13T15:20:10;24.40;;;9.00;;
82558;SDS011;72227;42.004;21.364;2023-10-13T15:22:43;23.48;;;13.32;;
82558;SDS011;72227;42.004;21.364;2023-10-13T15:25:09;32.05;;;15.82;;
82558;SDS011;72227;42.004;21.364;2023-10-13T15:27:58;16.23;;;7.97;;